sensor_id;sensor_type;location;lat;lon;timestamp;P1;durP1;ratioP1;P2;durP2;ratioP2
55053;SDS011;40954;45.668;18.980;2022-08-24T00:02:20;15.80;;;3.33;;
55053;SDS011;40954;45.668;18.980;2022-08-24T00:04:48;3.90;;;3.50;;
55053;SDS011;40954;45.668;18.980;2022-08-24T00:07:14;5.28;;;4.07;;
55053;SDS011;40954;45.668;18.980;2022-08-24T00:09:40;5.75;;;3.00;;
55053;SDS011;40954;45.668;18.980;2022-08-24T00:12:07;4.03;;;3.72;;
55053;SDS011;40954;45.668;18.980;2022-08-24T00:14:33;3.50;;;3.20;;
55053;SDS011;40954;45.668;18.980;2022-08-24T00:16:59;5.38;;;3.13;;
55053;SDS011;40954;45.668;18.980;2022-08-24T00:19:26;4.00;;;3.60;;
55053;SDS011;40954;45.668;18.980;2022-08-24T00:21:52;4.63;;;2.92;;
55053;SDS011;40954;45.668;18.980;2022-08-24T00:24:18;3.60;;;3.30;;
55053;SDS011;40954;45.668;18.980;2022-08-24T00:26:45;4.10;;;3.78;;
55053;SDS011;40954;45.668;18.980;2022-08-24T00:29:13;4.10;;;3.65;;
55053;SDS011;40954;45.668;18.980;2022-08-24T00:31:40;8.63;;;3.53;;
55053;SDS011;40954;45.668;18.980;2022-08-24T00:34:06;4.40;;;4.00;;
55053;SDS011;40954;45.668;18.980;2022-08-24T00:36:32;8.27;;;4.70;;
55053;SDS011;40954;45.668;18.980;2022-08-24T00:38:58;5.50;;;3.83;;
55053;SDS011;40954;45.668;18.980;2022-08-24T00:41:25;4.32;;;3.45;;
55053;SDS011;40954;45.668;18.980;2022-08-24T00:43:56;5.45;;;4.50;;
55053;SDS011;40954;45.668;18.980;2022-08-24T00:49:26;4.40;;;4.10;;
55053;SDS011;40954;45.668;18.980;2022-08-24T00:52:02;5.10;;;4.47;;
55053;SDS011;40954;45.668;18.980;2022-08-24T00:54:30;4.50;;;3.97;;
55053;SDS011;40954;45.668;18.980;2022-08-24T00:56:58;4.75;;;4.35;;
55053;SDS011;40954;45.668;18.980;2022-08-24T00:59:27;3.55;;;3.25;;
55053;SDS011;40954;45.668;18.980;2022-08-24T01:01:53;4.30;;;4.00;;
55053;SDS011;40954;45.668;18.980;2022-08-24T01:04:24;3.65;;;3.35;;
55053;SDS011;40954;45.668;18.980;2022-08-24T01:06:53;6.00;;;4.10;;
55053;SDS011;40954;45.668;18.980;2022-08-24T01:09:19;3.97;;;3.67;;
55053;SDS011;40954;45.668;18.980;2022-08-24T01:11:46;4.47;;;4.10;;
55053;SDS011;40954;45.668;18.980;2022-08-24T01:14:14;4.03;;;3.63;;
55053;SDS011;40954;45.668;18.980;2022-08-24T01:16:40;7.85;;;4.07;;
55053;SDS011;40954;45.668;18.980;2022-08-24T01:19:28;4.18;;;3.45;;
55053;SDS011;40954;45.668;18.980;2022-08-24T01:22:15;4.65;;;3.08;;
55053;SDS011;40954;45.668;18.980;2022-08-24T01:24:45;3.80;;;3.08;;
55053;SDS011;40954;45.668;18.980;2022-08-24T01:27:11;8.32;;;4.38;;
55053;SDS011;40954;45.668;18.980;2022-08-24T01:29:39;4.68;;;4.30;;
55053;SDS011;40954;45.668;18.980;2022-08-24T01:32:06;4.85;;;3.90;;
55053;SDS011;40954;45.668;18.980;2022-08-24T01:34:33;6.07;;;4.30;;
55053;SDS011;40954;45.668;18.980;2022-08-24T01:36:59;4.88;;;3.58;;
55053;SDS011;40954;45.668;18.980;2022-08-24T01:39:27;5.72;;;4.20;;
55053;SDS011;40954;45.668;18.980;2022-08-24T01:41:54;4.45;;;4.05;;
55053;SDS011;40954;45.668;18.980;2022-08-24T01:44:21;7.15;;;5.10;;
55053;SDS011;40954;45.668;18.980;2022-08-24T01:46:48;3.80;;;3.40;;
55053;SDS011;40954;45.668;18.980;2022-08-24T01:49:16;3.72;;;2.92;;
55053;SDS011;40954;45.668;18.980;2022-08-24T01:51:43;5.13;;;4.63;;
55053;SDS011;40954;45.668;18.980;2022-08-24T01:54:10;4.72;;;4.25;;
55053;SDS011;40954;45.668;18.980;2022-08-24T01:56:37;4.47;;;3.97;;
55053;SDS011;40954;45.668;18.980;2022-08-24T01:59:03;4.80;;;4.40;;
55053;SDS011;40954;45.668;18.980;2022-08-24T02:01:31;5.00;;;3.85;;
55053;SDS011;40954;45.668;18.980;2022-08-24T02:03:57;5.10;;;3.65;;
55053;SDS011;40954;45.668;18.980;2022-08-24T02:06:26;6.63;;;4.10;;
55053;SDS011;40954;45.668;18.980;2022-08-24T02:08:52;5.15;;;4.75;;
55053;SDS011;40954;45.668;18.980;2022-08-24T02:11:18;4.63;;;4.18;;
55053;SDS011;40954;45.668;18.980;2022-08-24T02:13:44;5.03;;;4.53;;
55053;SDS011;40954;45.668;18.980;2022-08-24T02:16:10;4.78;;;4.30;;
55053;SDS011;40954;45.668;18.980;2022-08-24T02:18:36;5.20;;;4.80;;
55053;SDS011;40954;45.668;18.980;2022-08-24T02:21:09;5.22;;;4.72;;
55053;SDS011;40954;45.668;18.980;2022-08-24T02:23:36;4.57;;;4.18;;
55053;SDS011;40954;45.668;18.980;2022-08-24T02:26:03;5.07;;;3.75;;
55053;SDS011;40954;45.668;18.980;2022-08-24T02:28:29;5.30;;;3.63;;
55053;SDS011;40954;45.668;18.980;2022-08-24T02:30:56;7.70;;;4.63;;
55053;SDS011;40954;45.668;18.980;2022-08-24T02:33:22;5.10;;;4.00;;
55053;SDS011;40954;45.668;18.980;2022-08-24T02:35:49;5.57;;;4.28;;
55053;SDS011;40954;45.668;18.980;2022-08-24T02:38:16;5.55;;;4.28;;
55053;SDS011;40954;45.668;18.980;2022-08-24T02:40:42;6.75;;;5.35;;
55053;SDS011;40954;45.668;18.980;2022-08-24T02:43:08;5.32;;;4.82;;
55053;SDS011;40954;45.668;18.980;2022-08-24T02:45:38;3.38;;;3.17;;
55053;SDS011;40954;45.668;18.980;2022-08-24T02:48:04;5.63;;;5.13;;
55053;SDS011;40954;45.668;18.980;2022-08-24T02:50:31;5.53;;;5.05;;
55053;SDS011;40954;45.668;18.980;2022-08-24T02:52:57;3.92;;;3.42;;
55053;SDS011;40954;45.668;18.980;2022-08-24T02:55:23;4.97;;;4.47;;
55053;SDS011;40954;45.668;18.980;2022-08-24T02:57:49;4.82;;;4.43;;
55053;SDS011;40954;45.668;18.980;2022-08-24T03:00:16;5.55;;;4.00;;
55053;SDS011;40954;45.668;18.980;2022-08-24T03:02:43;5.70;;;3.50;;
55053;SDS011;40954;45.668;18.980;2022-08-24T03:05:10;5.97;;;3.42;;
55053;SDS011;40954;45.668;18.980;2022-08-24T03:07:36;3.92;;;3.50;;
55053;SDS011;40954;45.668;18.980;2022-08-24T03:10:03;4.38;;;3.20;;
55053;SDS011;40954;45.668;18.980;2022-08-24T03:12:29;7.07;;;4.68;;
55053;SDS011;40954;45.668;18.980;2022-08-24T03:14:55;4.07;;;3.67;;
55053;SDS011;40954;45.668;18.980;2022-08-24T03:17:22;9.57;;;4.70;;
55053;SDS011;40954;45.668;18.980;2022-08-24T03:19:48;6.28;;;5.25;;
55053;SDS011;40954;45.668;18.980;2022-08-24T03:22:14;5.35;;;4.90;;
55053;SDS011;40954;45.668;18.980;2022-08-24T03:24:41;5.07;;;4.57;;
55053;SDS011;40954;45.668;18.980;2022-08-24T03:27:07;4.97;;;4.47;;
55053;SDS011;40954;45.668;18.980;2022-08-24T03:29:33;6.38;;;4.57;;
55053;SDS011;40954;45.668;18.980;2022-08-24T03:32:00;4.32;;;3.53;;
55053;SDS011;40954;45.668;18.980;2022-08-24T03:34:26;5.80;;;5.22;;
55053;SDS011;40954;45.668;18.980;2022-08-24T03:36:52;5.72;;;4.53;;
55053;SDS011;40954;45.668;18.980;2022-08-24T03:39:18;6.18;;;3.80;;
55053;SDS011;40954;45.668;18.980;2022-08-24T03:41:44;8.10;;;4.80;;
55053;SDS011;40954;45.668;18.980;2022-08-24T03:44:10;5.80;;;5.22;;
55053;SDS011;40954;45.668;18.980;2022-08-24T03:46:38;5.28;;;4.72;;
55053;SDS011;40954;45.668;18.980;2022-08-24T03:49:05;6.60;;;5.25;;
55053;SDS011;40954;45.668;18.980;2022-08-24T03:51:33;5.97;;;5.20;;
55053;SDS011;40954;45.668;18.980;2022-08-24T03:53:59;3.50;;;3.20;;
55053;SDS011;40954;45.668;18.980;2022-08-24T03:56:26;7.03;;;4.85;;
55053;SDS011;40954;45.668;18.980;2022-08-24T03:58:52;8.07;;;5.50;;
55053;SDS011;40954;45.668;18.980;2022-08-24T04:01:19;3.05;;;2.85;;
55053;SDS011;40954;45.668;18.980;2022-08-24T04:03:45;4.80;;;4.00;;
55053;SDS011;40954;45.668;18.980;2022-08-24T04:06:12;6.80;;;4.40;;
55053;SDS011;40954;45.668;18.980;2022-08-24T04:08:40;5.15;;;4.75;;
55053;SDS011;40954;45.668;18.980;2022-08-24T04:11:11;4.28;;;3.97;;
55053;SDS011;40954;45.668;18.980;2022-08-24T04:13:37;6.32;;;3.75;;
55053;SDS011;40954;45.668;18.980;2022-08-24T04:16:08;7.63;;;5.30;;
55053;SDS011;40954;45.668;18.980;2022-08-24T04:18:34;5.55;;;3.70;;
55053;SDS011;40954;45.668;18.980;2022-08-24T04:21:01;5.85;;;5.35;;
55053;SDS011;40954;45.668;18.980;2022-08-24T04:23:28;3.35;;;3.13;;
55053;SDS011;40954;45.668;18.980;2022-08-24T04:25:54;2.88;;;2.58;;
55053;SDS011;40954;45.668;18.980;2022-08-24T04:28:20;3.03;;;2.72;;
55053;SDS011;40954;45.668;18.980;2022-08-24T04:30:48;6.30;;;5.05;;
55053;SDS011;40954;45.668;18.980;2022-08-24T04:33:17;4.22;;;3.67;;
55053;SDS011;40954;45.668;18.980;2022-08-24T04:35:44;4.20;;;3.80;;
55053;SDS011;40954;45.668;18.980;2022-08-24T04:38:12;5.82;;;5.32;;
55053;SDS011;40954;45.668;18.980;2022-08-24T04:40:39;7.78;;;5.50;;
55053;SDS011;40954;45.668;18.980;2022-08-24T04:43:05;6.57;;;5.97;;
55053;SDS011;40954;45.668;18.980;2022-08-24T04:45:31;9.02;;;6.90;;
55053;SDS011;40954;45.668;18.980;2022-08-24T04:47:58;33.17;;;26.58;;
55053;SDS011;40954;45.668;18.980;2022-08-24T04:50:24;8.05;;;5.63;;
55053;SDS011;40954;45.668;18.980;2022-08-24T04:52:51;6.05;;;5.22;;
55053;SDS011;40954;45.668;18.980;2022-08-24T04:55:17;17.33;;;12.02;;
55053;SDS011;40954;45.668;18.980;2022-08-24T04:57:43;34.53;;;29.15;;
55053;SDS011;40954;45.668;18.980;2022-08-24T05:00:09;37.60;;;27.58;;
55053;SDS011;40954;45.668;18.980;2022-08-24T05:02:36;31.98;;;25.58;;
55053;SDS011;40954;45.668;18.980;2022-08-24T05:05:05;9.55;;;8.07;;
55053;SDS011;40954;45.668;18.980;2022-08-24T05:07:31;25.83;;;19.65;;
55053;SDS011;40954;45.668;18.980;2022-08-24T05:09:57;11.88;;;9.40;;
55053;SDS011;40954;45.668;18.980;2022-08-24T05:12:24;8.70;;;6.00;;
55053;SDS011;40954;45.668;18.980;2022-08-24T05:14:50;10.35;;;6.72;;
55053;SDS011;40954;45.668;18.980;2022-08-24T05:17:16;7.88;;;7.07;;
55053;SDS011;40954;45.668;18.980;2022-08-24T05:19:42;7.35;;;6.72;;
55053;SDS011;40954;45.668;18.980;2022-08-24T05:22:09;10.57;;;6.30;;
55053;SDS011;40954;45.668;18.980;2022-08-24T05:24:35;7.28;;;6.65;;
55053;SDS011;40954;45.668;18.980;2022-08-24T05:27:01;6.78;;;6.18;;
55053;SDS011;40954;45.668;18.980;2022-08-24T05:29:27;9.07;;;6.90;;
55053;SDS011;40954;45.668;18.980;2022-08-24T05:31:57;7.43;;;5.72;;
55053;SDS011;40954;45.668;18.980;2022-08-24T05:34:23;8.90;;;6.55;;
55053;SDS011;40954;45.668;18.980;2022-08-24T05:36:49;11.60;;;7.55;;
55053;SDS011;40954;45.668;18.980;2022-08-24T05:39:15;7.47;;;6.70;;
55053;SDS011;40954;45.668;18.980;2022-08-24T05:41:42;6.00;;;5.47;;
55053;SDS011;40954;45.668;18.980;2022-08-24T05:44:08;7.85;;;5.95;;
55053;SDS011;40954;45.668;18.980;2022-08-24T05:46:35;6.22;;;5.72;;
55053;SDS011;40954;45.668;18.980;2022-08-24T05:49:01;6.22;;;5.63;;
55053;SDS011;40954;45.668;18.980;2022-08-24T05:51:27;6.68;;;5.32;;
55053;SDS011;40954;45.668;18.980;2022-08-24T05:53:54;8.35;;;5.97;;
55053;SDS011;40954;45.668;18.980;2022-08-24T05:56:20;5.90;;;5.30;;
55053;SDS011;40954;45.668;18.980;2022-08-24T05:58:47;6.13;;;5.40;;
55053;SDS011;40954;45.668;18.980;2022-08-24T06:01:18;5.50;;;5.00;;
55053;SDS011;40954;45.668;18.980;2022-08-24T06:03:45;7.37;;;4.70;;
55053;SDS011;40954;45.668;18.980;2022-08-24T06:06:11;6.80;;;5.60;;
55053;SDS011;40954;45.668;18.980;2022-08-24T06:08:38;6.03;;;5.53;;
55053;SDS011;40954;45.668;18.980;2022-08-24T06:11:04;6.47;;;4.82;;
55053;SDS011;40954;45.668;18.980;2022-08-24T06:13:31;7.68;;;5.85;;
55053;SDS011;40954;45.668;18.980;2022-08-24T06:16:02;7.47;;;5.50;;
55053;SDS011;40954;45.668;18.980;2022-08-24T06:18:28;8.25;;;5.38;;
55053;SDS011;40954;45.668;18.980;2022-08-24T06:20:54;9.07;;;5.65;;
55053;SDS011;40954;45.668;18.980;2022-08-24T06:23:20;7.00;;;5.63;;
55053;SDS011;40954;45.668;18.980;2022-08-24T06:25:46;5.68;;;5.18;;
55053;SDS011;40954;45.668;18.980;2022-08-24T06:28:31;6.03;;;5.15;;
55053;SDS011;40954;45.668;18.980;2022-08-24T06:31:01;6.32;;;5.55;;
55053;SDS011;40954;45.668;18.980;2022-08-24T06:33:27;5.90;;;5.38;;
55053;SDS011;40954;45.668;18.980;2022-08-24T06:35:53;5.10;;;4.57;;
55053;SDS011;40954;45.668;18.980;2022-08-24T06:38:19;16.48;;;4.32;;
55053;SDS011;40954;45.668;18.980;2022-08-24T06:40:45;6.43;;;5.82;;
55053;SDS011;40954;45.668;18.980;2022-08-24T06:43:11;5.28;;;4.53;;
55053;SDS011;40954;45.668;18.980;2022-08-24T06:45:39;6.25;;;5.75;;
55053;SDS011;40954;45.668;18.980;2022-08-24T06:48:06;6.10;;;5.47;;
55053;SDS011;40954;45.668;18.980;2022-08-24T06:50:32;6.32;;;4.95;;
55053;SDS011;40954;45.668;18.980;2022-08-24T06:52:58;7.00;;;4.30;;
55053;SDS011;40954;45.668;18.980;2022-08-24T06:55:25;5.55;;;5.05;;
55053;SDS011;40954;45.668;18.980;2022-08-24T06:57:51;5.10;;;4.68;;
55053;SDS011;40954;45.668;18.980;2022-08-24T07:00:17;5.18;;;4.78;;
55053;SDS011;40954;45.668;18.980;2022-08-24T07:02:43;5.88;;;4.57;;
55053;SDS011;40954;45.668;18.980;2022-08-24T07:05:10;7.85;;;4.05;;
55053;SDS011;40954;45.668;18.980;2022-08-24T07:07:36;6.07;;;4.90;;
55053;SDS011;40954;45.668;18.980;2022-08-24T07:10:03;6.45;;;5.47;;
55053;SDS011;40954;45.668;18.980;2022-08-24T07:12:29;6.22;;;5.72;;
55053;SDS011;40954;45.668;18.980;2022-08-24T07:14:55;6.78;;;5.05;;
55053;SDS011;40954;45.668;18.980;2022-08-24T07:17:21;5.15;;;4.75;;
55053;SDS011;40954;45.668;18.980;2022-08-24T07:19:48;7.70;;;5.55;;
55053;SDS011;40954;45.668;18.980;2022-08-24T07:22:15;8.95;;;4.72;;
55053;SDS011;40954;45.668;18.980;2022-08-24T07:24:41;5.20;;;4.47;;
55053;SDS011;40954;45.668;18.980;2022-08-24T07:27:07;6.43;;;5.85;;
55053;SDS011;40954;45.668;18.980;2022-08-24T07:29:33;6.10;;;5.60;;
55053;SDS011;40954;45.668;18.980;2022-08-24T07:31:59;7.75;;;6.55;;
55053;SDS011;40954;45.668;18.980;2022-08-24T07:34:25;12.25;;;5.30;;
55053;SDS011;40954;45.668;18.980;2022-08-24T07:36:51;12.90;;;6.30;;
55053;SDS011;40954;45.668;18.980;2022-08-24T07:39:17;5.90;;;5.28;;
55053;SDS011;40954;45.668;18.980;2022-08-24T07:41:43;5.75;;;3.78;;
55053;SDS011;40954;45.668;18.980;2022-08-24T07:44:10;11.40;;;6.40;;
55053;SDS011;40954;45.668;18.980;2022-08-24T07:46:37;7.00;;;6.28;;
55053;SDS011;40954;45.668;18.980;2022-08-24T07:49:04;5.32;;;4.82;;
55053;SDS011;40954;45.668;18.980;2022-08-24T07:51:30;6.28;;;5.68;;
55053;SDS011;40954;45.668;18.980;2022-08-24T07:53:56;8.60;;;6.70;;
55053;SDS011;40954;45.668;18.980;2022-08-24T07:56:22;12.85;;;6.10;;
55053;SDS011;40954;45.668;18.980;2022-08-24T07:58:49;6.45;;;5.88;;
55053;SDS011;40954;45.668;18.980;2022-08-24T08:01:15;6.57;;;5.97;;
55053;SDS011;40954;45.668;18.980;2022-08-24T08:03:42;6.47;;;5.95;;
55053;SDS011;40954;45.668;18.980;2022-08-24T08:06:08;6.53;;;5.55;;
55053;SDS011;40954;45.668;18.980;2022-08-24T08:08:35;5.45;;;4.95;;
55053;SDS011;40954;45.668;18.980;2022-08-24T08:11:02;11.77;;;7.30;;
55053;SDS011;40954;45.668;18.980;2022-08-24T08:13:28;9.68;;;6.57;;
55053;SDS011;40954;45.668;18.980;2022-08-24T08:15:55;8.75;;;5.00;;
55053;SDS011;40954;45.668;18.980;2022-08-24T08:18:21;8.27;;;5.90;;
55053;SDS011;40954;45.668;18.980;2022-08-24T08:20:47;9.35;;;6.00;;
55053;SDS011;40954;45.668;18.980;2022-08-24T08:23:14;5.82;;;5.22;;
55053;SDS011;40954;45.668;18.980;2022-08-24T08:25:59;5.75;;;5.28;;
55053;SDS011;40954;45.668;18.980;2022-08-24T08:28:28;11.98;;;7.32;;
55053;SDS011;40954;45.668;18.980;2022-08-24T08:31:01;6.55;;;5.20;;
55053;SDS011;40954;45.668;18.980;2022-08-24T08:33:28;14.40;;;4.03;;
55053;SDS011;40954;45.668;18.980;2022-08-24T08:35:55;13.98;;;8.25;;
55053;SDS011;40954;45.668;18.980;2022-08-24T08:38:26;8.80;;;8.00;;
55053;SDS011;40954;45.668;18.980;2022-08-24T08:46:19;4.90;;;4.03;;
55053;SDS011;40954;45.668;18.980;2022-08-24T08:49:02;8.00;;;7.00;;
55053;SDS011;40954;45.668;18.980;2022-08-24T08:56:41;7.30;;;6.60;;
55053;SDS011;40954;45.668;18.980;2022-08-24T09:22:13;9.40;;;8.23;;
55053;SDS011;40954;45.668;18.980;2022-08-24T09:30:17;16.60;;;13.73;;
55053;SDS011;40954;45.668;18.980;2022-08-24T09:32:57;11.45;;;10.25;;
55053;SDS011;40954;45.668;18.980;2022-08-24T09:35:31;13.90;;;6.68;;
55053;SDS011;40954;45.668;18.980;2022-08-24T09:46:06;10.13;;;9.13;;
55053;SDS011;40954;45.668;18.980;2022-08-24T09:48:54;13.98;;;11.32;;
55053;SDS011;40954;45.668;18.980;2022-08-24T10:00:04;16.13;;;13.35;;
55053;SDS011;40954;45.668;18.980;2022-08-24T10:05:23;15.43;;;12.52;;
55053;SDS011;40954;45.668;18.980;2022-08-24T10:12:47;14.32;;;12.88;;
55053;SDS011;40954;45.668;18.980;2022-08-24T10:15:18;13.88;;;12.50;;
55053;SDS011;40954;45.668;18.980;2022-08-24T10:20:42;13.65;;;9.80;;
55053;SDS011;40954;45.668;18.980;2022-08-24T10:45:10;19.42;;;13.32;;
55053;SDS011;40954;45.668;18.980;2022-08-24T10:50:15;16.98;;;15.27;;
55053;SDS011;40954;45.668;18.980;2022-08-24T10:55:27;15.70;;;14.02;;
55053;SDS011;40954;45.668;18.980;2022-08-24T11:00:20;12.82;;;11.73;;
55053;SDS011;40954;45.668;18.980;2022-08-24T11:03:03;14.25;;;12.73;;
55053;SDS011;40954;45.668;18.980;2022-08-24T11:05:30;16.15;;;12.73;;
55053;SDS011;40954;45.668;18.980;2022-08-24T11:08:01;14.63;;;13.43;;
55053;SDS011;40954;45.668;18.980;2022-08-24T11:10:29;12.95;;;11.85;;
55053;SDS011;40954;45.668;18.980;2022-08-24T11:13:02;13.93;;;12.52;;
55053;SDS011;40954;45.668;18.980;2022-08-24T11:15:38;14.68;;;13.27;;
55053;SDS011;40954;45.668;18.980;2022-08-24T11:18:11;13.55;;;12.27;;
55053;SDS011;40954;45.668;18.980;2022-08-24T11:20:41;14.10;;;12.70;;
55053;SDS011;40954;45.668;18.980;2022-08-24T11:23:15;17.83;;;13.43;;
55053;SDS011;40954;45.668;18.980;2022-08-24T11:26:05;12.43;;;10.55;;
55053;SDS011;40954;45.668;18.980;2022-08-24T11:28:33;11.90;;;5.63;;
55053;SDS011;40954;45.668;18.980;2022-08-24T11:31:03;12.50;;;11.32;;
55053;SDS011;40954;45.668;18.980;2022-08-24T11:33:34;11.75;;;9.70;;
55053;SDS011;40954;45.668;18.980;2022-08-24T11:36:00;13.55;;;12.10;;
55053;SDS011;40954;45.668;18.980;2022-08-24T11:38:30;20.13;;;10.25;;
55053;SDS011;40954;45.668;18.980;2022-08-24T11:48:25;41.30;;;27.23;;
55053;SDS011;40954;45.668;18.980;2022-08-24T11:56:27;20.17;;;16.73;;
55053;SDS011;40954;45.668;18.980;2022-08-24T11:59:00;37.85;;;25.77;;
55053;SDS011;40954;45.668;18.980;2022-08-24T12:06:46;23.90;;;16.30;;
55053;SDS011;40954;45.668;18.980;2022-08-24T12:09:27;13.02;;;11.65;;
55053;SDS011;40954;45.668;18.980;2022-08-24T12:14:26;30.20;;;15.38;;
55053;SDS011;40954;45.668;18.980;2022-08-24T12:17:04;18.30;;;13.63;;
55053;SDS011;40954;45.668;18.980;2022-08-24T12:19:40;30.02;;;14.07;;
55053;SDS011;40954;45.668;18.980;2022-08-24T12:22:08;16.70;;;14.98;;
55053;SDS011;40954;45.668;18.980;2022-08-24T12:24:39;20.42;;;12.35;;
55053;SDS011;40954;45.668;18.980;2022-08-24T12:27:10;14.83;;;13.20;;
55053;SDS011;40954;45.668;18.980;2022-08-24T12:29:39;18.55;;;12.77;;
55053;SDS011;40954;45.668;18.980;2022-08-24T12:34:56;15.55;;;10.93;;
55053;SDS011;40954;45.668;18.980;2022-08-24T12:37:34;15.98;;;10.40;;
55053;SDS011;40954;45.668;18.980;2022-08-24T12:45:16;12.20;;;11.00;;
55053;SDS011;40954;45.668;18.980;2022-08-24T12:47:48;11.32;;;9.10;;
55053;SDS011;40954;45.668;18.980;2022-08-24T13:00:50;13.13;;;11.80;;
55053;SDS011;40954;45.668;18.980;2022-08-24T13:03:24;8.48;;;7.57;;
55053;SDS011;40954;45.668;18.980;2022-08-24T13:05:54;11.07;;;10.00;;
55053;SDS011;40954;45.668;18.980;2022-08-24T13:08:31;8.73;;;6.72;;
55053;SDS011;40954;45.668;18.980;2022-08-24T13:11:01;8.13;;;7.43;;
55053;SDS011;40954;45.668;18.980;2022-08-24T13:15:57;8.95;;;6.57;;
55053;SDS011;40954;45.668;18.980;2022-08-24T13:18:26;11.77;;;7.10;;
55053;SDS011;40954;45.668;18.980;2022-08-24T13:21:13;8.70;;;7.90;;
55053;SDS011;40954;45.668;18.980;2022-08-24T13:23:40;8.95;;;8.15;;
55053;SDS011;40954;45.668;18.980;2022-08-24T13:26:23;8.52;;;7.25;;
55053;SDS011;40954;45.668;18.980;2022-08-24T13:28:52;11.35;;;7.60;;
55053;SDS011;40954;45.668;18.980;2022-08-24T13:31:32;13.30;;;11.98;;
55053;SDS011;40954;45.668;18.980;2022-08-24T13:36:49;8.88;;;7.10;;
55053;SDS011;40954;45.668;18.980;2022-08-24T13:39:35;10.13;;;9.32;;
55053;SDS011;40954;45.668;18.980;2022-08-24T13:47:17;11.80;;;10.45;;
55053;SDS011;40954;45.668;18.980;2022-08-24T13:49:49;7.05;;;6.40;;
55053;SDS011;40954;45.668;18.980;2022-08-24T13:57:33;16.30;;;8.57;;
55053;SDS011;40954;45.668;18.980;2022-08-24T14:05:34;7.85;;;6.60;;
55053;SDS011;40954;45.668;18.980;2022-08-24T14:08:06;8.20;;;7.25;;
55053;SDS011;40954;45.668;18.980;2022-08-24T14:18:48;13.35;;;12.10;;
55053;SDS011;40954;45.668;18.980;2022-08-24T14:21:17;9.20;;;8.40;;
55053;SDS011;40954;45.668;18.980;2022-08-24T14:32:23;12.32;;;9.68;;
55053;SDS011;40954;45.668;18.980;2022-08-24T14:34:27;13.25;;;11.95;;
55053;SDS011;40954;45.668;18.980;2022-08-24T14:45:05;9.63;;;8.70;;
55053;SDS011;40954;45.668;18.980;2022-08-24T14:50:22;8.88;;;8.00;;
55053;SDS011;40954;45.668;18.980;2022-08-24T15:03:26;13.27;;;11.93;;
55053;SDS011;40954;45.668;18.980;2022-08-24T15:08:42;9.57;;;8.68;;
55053;SDS011;40954;45.668;18.980;2022-08-24T15:11:10;15.15;;;13.68;;
55053;SDS011;40954;45.668;18.980;2022-08-24T15:13:42;16.63;;;13.93;;
55053;SDS011;40954;45.668;18.980;2022-08-24T15:16:10;13.57;;;12.38;;
55053;SDS011;40954;45.668;18.980;2022-08-24T15:18:47;11.18;;;10.18;;
55053;SDS011;40954;45.668;18.980;2022-08-24T15:28:49;13.40;;;12.20;;
55053;SDS011;40954;45.668;18.980;2022-08-24T15:31:18;14.48;;;11.57;;
55053;SDS011;40954;45.668;18.980;2022-08-24T15:33:52;12.45;;;11.25;;
55053;SDS011;40954;45.668;18.980;2022-08-24T15:36:18;13.07;;;11.82;;
55053;SDS011;40954;45.668;18.980;2022-08-24T15:38:44;12.95;;;11.65;;
55053;SDS011;40954;45.668;18.980;2022-08-24T15:43:43;12.52;;;11.25;;
55053;SDS011;40954;45.668;18.980;2022-08-24T15:46:10;12.32;;;10.63;;
55053;SDS011;40954;45.668;18.980;2022-08-24T15:48:37;11.88;;;10.68;;
55053;SDS011;40954;45.668;18.980;2022-08-24T15:51:05;10.38;;;9.38;;
55053;SDS011;40954;45.668;18.980;2022-08-24T15:53:40;10.63;;;9.52;;
55053;SDS011;40954;45.668;18.980;2022-08-24T15:58:46;11.27;;;9.57;;
55053;SDS011;40954;45.668;18.980;2022-08-24T16:03:58;11.07;;;9.63;;
55053;SDS011;40954;45.668;18.980;2022-08-24T16:08:58;10.60;;;9.52;;
55053;SDS011;40954;45.668;18.980;2022-08-24T16:11:30;13.10;;;10.65;;
55053;SDS011;40954;45.668;18.980;2022-08-24T16:13:57;10.40;;;9.32;;
55053;SDS011;40954;45.668;18.980;2022-08-24T16:16:37;15.05;;;12.25;;
55053;SDS011;40954;45.668;18.980;2022-08-24T16:19:04;11.75;;;10.57;;
55053;SDS011;40954;45.668;18.980;2022-08-24T16:24:39;11.77;;;10.57;;
55053;SDS011;40954;45.668;18.980;2022-08-24T16:32:10;10.35;;;7.97;;
55053;SDS011;40954;45.668;18.980;2022-08-24T16:34:37;10.40;;;9.40;;
55053;SDS011;40954;45.668;18.980;2022-08-24T16:37:04;10.50;;;9.40;;
55053;SDS011;40954;45.668;18.980;2022-08-24T16:39:30;8.32;;;7.35;;
55053;SDS011;40954;45.668;18.980;2022-08-24T16:41:57;13.25;;;10.77;;
55053;SDS011;40954;45.668;18.980;2022-08-24T16:44:25;10.45;;;9.40;;
55053;SDS011;40954;45.668;18.980;2022-08-24T16:46:52;16.05;;;14.45;;
55053;SDS011;40954;45.668;18.980;2022-08-24T16:49:18;13.23;;;10.13;;
55053;SDS011;40954;45.668;18.980;2022-08-24T16:51:44;10.77;;;9.80;;
55053;SDS011;40954;45.668;18.980;2022-08-24T16:54:10;11.07;;;10.07;;
55053;SDS011;40954;45.668;18.980;2022-08-24T16:56:36;12.07;;;10.90;;
55053;SDS011;40954;45.668;18.980;2022-08-24T16:59:02;11.65;;;10.52;;
55053;SDS011;40954;45.668;18.980;2022-08-24T17:01:28;11.93;;;10.57;;
55053;SDS011;40954;45.668;18.980;2022-08-24T17:03:54;15.77;;;10.93;;
55053;SDS011;40954;45.668;18.980;2022-08-24T17:06:20;12.23;;;11.02;;
55053;SDS011;40954;45.668;18.980;2022-08-24T17:08:47;11.68;;;10.57;;
55053;SDS011;40954;45.668;18.980;2022-08-24T17:11:13;11.00;;;9.90;;
55053;SDS011;40954;45.668;18.980;2022-08-24T17:13:40;13.05;;;10.65;;
55053;SDS011;40954;45.668;18.980;2022-08-24T17:16:06;11.23;;;10.23;;
55053;SDS011;40954;45.668;18.980;2022-08-24T17:18:33;9.07;;;8.23;;
55053;SDS011;40954;45.668;18.980;2022-08-24T17:20:59;10.80;;;9.70;;
55053;SDS011;40954;45.668;18.980;2022-08-24T17:23:25;12.50;;;10.90;;
55053;SDS011;40954;45.668;18.980;2022-08-24T17:25:52;12.13;;;11.00;;
55053;SDS011;40954;45.668;18.980;2022-08-24T17:28:18;15.52;;;14.10;;
55053;SDS011;40954;45.668;18.980;2022-08-24T17:30:44;13.20;;;12.00;;
55053;SDS011;40954;45.668;18.980;2022-08-24T17:33:10;12.73;;;11.43;;
55053;SDS011;40954;45.668;18.980;2022-08-24T17:35:37;13.88;;;11.48;;
55053;SDS011;40954;45.668;18.980;2022-08-24T17:38:04;15.80;;;11.82;;
55053;SDS011;40954;45.668;18.980;2022-08-24T17:40:31;11.05;;;9.95;;
55053;SDS011;40954;45.668;18.980;2022-08-24T17:42:57;11.10;;;10.00;;
55053;SDS011;40954;45.668;18.980;2022-08-24T17:45:24;18.40;;;16.55;;
55053;SDS011;40954;45.668;18.980;2022-08-24T17:47:50;13.57;;;12.15;;
55053;SDS011;40954;45.668;18.980;2022-08-24T17:50:17;12.60;;;11.10;;
55053;SDS011;40954;45.668;18.980;2022-08-24T17:52:44;13.43;;;12.07;;
55053;SDS011;40954;45.668;18.980;2022-08-24T17:55:11;15.90;;;12.52;;
55053;SDS011;40954;45.668;18.980;2022-08-24T17:57:37;13.10;;;11.90;;
55053;SDS011;40954;45.668;18.980;2022-08-24T18:00:05;13.73;;;12.27;;
55053;SDS011;40954;45.668;18.980;2022-08-24T18:02:31;13.30;;;11.98;;
55053;SDS011;40954;45.668;18.980;2022-08-24T18:04:58;13.45;;;12.10;;
55053;SDS011;40954;45.668;18.980;2022-08-24T18:07:25;17.73;;;13.65;;
55053;SDS011;40954;45.668;18.980;2022-08-24T18:09:54;13.75;;;12.35;;
55053;SDS011;40954;45.668;18.980;2022-08-24T18:12:22;14.27;;;12.93;;
55053;SDS011;40954;45.668;18.980;2022-08-24T18:14:49;14.88;;;13.45;;
55053;SDS011;40954;45.668;18.980;2022-08-24T18:17:19;16.13;;;13.02;;
55053;SDS011;40954;45.668;18.980;2022-08-24T18:19:46;15.10;;;13.52;;